Terminal Aerodrome Forecast
Issued by NWS

Home | Current Version | Previous Version | Graphics & Text | Print | Product List | Glossary On
Versions: 1 2 3 4 5 6 7 8 9 10 11 12 13 14 15 16 17 18 19
943
FTUS43 KIWX 222337
TAFSBN
TAF
KSBN 222337Z 2300/2324 29007KT P6SM SKC
     FM230500 00000KT 5SM BR SCT250
     FM230800 00000KT 2SM BR SCT008
      TEMPO 2308/2312 1/2SM FG BKN008
     FM231300 00000KT 3SM BR SCT008 BKN025
     FM231500 22004KT P6SM SCT040=

USA.gov is the U.S. government's official web portal to all federal, state and local government web resources and services.